createdAt,value
2023-02-28T00:01:27.077Z,102150.22
2023-02-28T00:03:54.751Z,102145.03
2023-02-28T00:06:22.205Z,102149.38
2023-02-28T00:08:49.674Z,102148.69
2023-02-28T00:11:17.922Z,102148.16
2023-02-28T00:13:49.742Z,102136.56
2023-02-28T00:16:21.637Z,102144.91
2023-02-28T00:18:49.516Z,102140.81
2023-02-28T00:21:18.065Z,102139.16
2023-02-28T00:23:45.762Z,102146.56
2023-02-28T00:26:13.154Z,102144.59
2023-02-28T00:28:43.880Z,102156.88
2023-02-28T00:31:11.491Z,102159.03
2023-02-28T00:33:39.028Z,102166.66
2023-02-28T00:36:08.629Z,102160.69
2023-02-28T00:38:38.453Z,102157.72
2023-02-28T00:41:06.433Z,102159.44
2023-02-28T00:43:35.634Z,102169.75
2023-02-28T00:46:03.949Z,102169.94
2023-02-28T00:48:31.882Z,102170.22
2023-02-28T00:50:59.485Z,102161.91
2023-02-28T00:53:27.093Z,102168.09
2023-02-28T00:55:54.432Z,102167.19
2023-02-28T00:58:21.930Z,102167.88
2023-02-28T01:00:50.142Z,102163.97
2023-02-28T01:03:19.417Z,102170.66
2023-02-28T01:05:47.485Z,102172.47
2023-02-28T01:08:15.419Z,102176.75
2023-02-28T01:10:44.508Z,102175.84
2023-02-28T01:13:12.942Z,102179.09
2023-02-28T01:15:43.490Z,102177.91
2023-02-28T01:18:12.178Z,102175.00
2023-02-28T01:20:39.441Z,102189.31
2023-02-28T01:23:06.774Z,102180.13
2023-02-28T01:25:36.632Z,102176.94
2023-02-28T01:28:06.801Z,102171.06
2023-02-28T01:30:35.117Z,102183.34
2023-02-28T01:33:02.625Z,102183.38
2023-02-28T01:35:30.129Z,102171.97
2023-02-28T01:38:04.722Z,102177.13
2023-02-28T01:40:37.287Z,102179.09
2023-02-28T01:43:10.557Z,102171.84
2023-02-28T01:45:38.250Z,102175.91
2023-02-28T01:48:09.049Z,102168.91
2023-02-28T01:50:40.560Z,102169.09
2023-02-28T01:53:14.853Z,102165.88
2023-02-28T01:55:43.916Z,102167.09
2023-02-28T01:58:11.500Z,102165.81
2023-02-28T02:00:39.966Z,102170.56
2023-02-28T02:03:15.246Z,102164.66
2023-02-28T02:05:48.791Z,102164.13
2023-02-28T02:08:22.786Z,102163.88
2023-02-28T02:10:52.288Z,102173.13
2023-02-28T02:13:19.819Z,102166.44
2023-02-28T02:16:21.475Z,102160.16
2023-02-28T02:18:53.685Z,102156.06
2023-02-28T02:21:46.036Z,102157.34
2023-02-28T02:24:49.036Z,102151.00
2023-02-28T02:27:47.461Z,102156.13
2023-02-28T02:30:52.125Z,102153.53
2023-02-28T02:33:28.373Z,102153.28
2023-02-28T02:36:00.839Z,102148.78
2023-02-28T02:38:46.277Z,102150.50
2023-02-28T02:41:26.714Z,102153.88
2023-02-28T02:44:08.532Z,102151.53
2023-02-28T02:46:38.778Z,102149.56
2023-02-28T02:49:10.369Z,102145.47
2023-02-28T02:51:39.166Z,102156.50
2023-02-28T02:54:24.338Z,102155.88
2023-02-28T02:56:52.448Z,102153.56
2023-02-28T02:59:22.615Z,102144.13
2023-02-28T03:01:53.248Z,102142.31
2023-02-28T03:04:22.523Z,102143.63
2023-02-28T03:06:55.748Z,102141.81
2023-02-28T03:09:23.893Z,102141.66
2023-02-28T03:11:53.306Z,102146.53
2023-02-28T03:14:46.150Z,102145.13
2023-02-28T03:17:25.603Z,102146.31
2023-02-28T03:19:54.778Z,102147.38
2023-02-28T03:22:53.708Z,102144.06
2023-02-28T03:25:59.244Z,102143.03
2023-02-28T03:28:33.237Z,102149.63
2023-02-28T03:31:10.272Z,102146.47
2023-02-28T03:33:43.535Z,102148.56
2023-02-28T03:36:17.344Z,102147.84
2023-02-28T03:38:52.734Z,102153.00
2023-02-28T03:41:41.647Z,102146.13
2023-02-28T03:44:16.501Z,102148.63
2023-02-28T03:46:49.763Z,102160.66
2023-02-28T03:49:23.489Z,102149.97
2023-02-28T03:51:51.208Z,102145.72
2023-02-28T03:54:24.696Z,102155.41
2023-02-28T03:57:06.945Z,102160.00
2023-02-28T03:59:47.285Z,102153.00
2023-02-28T04:02:14.638Z,102152.06
2023-02-28T04:04:46.245Z,102151.38
2023-02-28T04:07:13.755Z,102155.81
2023-02-28T04:09:41.880Z,102160.09
2023-02-28T04:12:09.423Z,102158.72
2023-02-28T04:14:37.032Z,102160.34
2023-02-28T04:17:04.640Z,102154.69
2023-02-28T04:19:32.060Z,102154.91
2023-02-28T04:21:59.543Z,102159.09
2023-02-28T04:24:28.647Z,102168.88
2023-02-28T04:26:57.626Z,102167.47
2023-02-28T04:29:29.182Z,102167.81
2023-02-28T04:31:59.068Z,102168.47
2023-02-28T04:34:27.701Z,102172.16
2023-02-28T04:37:11.626Z,102172.56
2023-02-28T04:39:40.335Z,102164.97
2023-02-28T04:42:07.824Z,102176.97
2023-02-28T04:44:35.798Z,102172.97
2023-02-28T04:47:03.000Z,102185.69
2023-02-28T04:49:30.351Z,102190.16
2023-02-28T04:51:57.759Z,102175.31
2023-02-28T04:54:25.544Z,102197.00
2023-02-28T04:56:52.848Z,102188.91
2023-02-28T04:59:21.413Z,102193.09
2023-02-28T05:01:50.388Z,102202.13
2023-02-28T05:04:18.303Z,102194.63
2023-02-28T05:06:45.594Z,102193.75
2023-02-28T05:09:12.896Z,102192.06
2023-02-28T05:11:40.831Z,102184.53
2023-02-28T05:14:12.641Z,102192.25
2023-02-28T05:16:40.336Z,102195.75
2023-02-28T05:19:07.887Z,102201.56
2023-02-28T05:21:55.889Z,102199.53
2023-02-28T05:24:26.031Z,102200.94
2023-02-28T05:26:55.166Z,102206.06
2023-02-28T05:29:22.938Z,102209.03
2023-02-28T05:31:50.583Z,102207.09
2023-02-28T05:34:18.020Z,102215.53
2023-02-28T05:36:45.548Z,102214.28
2023-02-28T05:39:14.073Z,102212.31
2023-02-28T05:41:44.921Z,102215.41
2023-02-28T05:44:13.130Z,102216.63
2023-02-28T05:46:40.677Z,102227.34
2023-02-28T05:49:07.974Z,102210.88
2023-02-28T05:51:37.266Z,102219.19
2023-02-28T05:54:04.954Z,102212.53
2023-02-28T05:56:32.805Z,102233.16
2023-02-28T05:59:00.293Z,102232.47
2023-02-28T06:01:38.244Z,102225.75
2023-02-28T06:04:08.015Z,102224.72
2023-02-28T06:06:37.355Z,102230.44
2023-02-28T06:09:06.230Z,102230.28
2023-02-28T06:11:34.342Z,102231.31
2023-02-28T06:14:02.863Z,102228.38
2023-02-28T06:16:32.053Z,102233.81
2023-02-28T06:19:01.017Z,102233.84
2023-02-28T06:21:29.448Z,102240.91
2023-02-28T06:23:58.425Z,102234.66
2023-02-28T06:26:26.302Z,102240.44
2023-02-28T06:28:54.133Z,102244.28
2023-02-28T06:31:22.201Z,102234.88
2023-02-28T06:33:50.051Z,102249.06
2023-02-28T06:36:17.998Z,102246.97
2023-02-28T06:38:45.596Z,102244.03
2023-02-28T06:41:12.912Z,102246.97
2023-02-28T06:43:42.377Z,102249.06
2023-02-28T06:46:12.479Z,102255.31
2023-02-28T06:48:40.088Z,102244.66
2023-02-28T06:51:08.643Z,102234.47
2023-02-28T06:53:36.527Z,102240.66
2023-02-28T06:56:08.642Z,102244.81
2023-02-28T06:58:36.577Z,102237.97
2023-02-28T07:01:04.709Z,102236.47
2023-02-28T07:03:34.380Z,102241.50
2023-02-28T07:06:02.057Z,102238.44
2023-02-28T07:08:29.406Z,102236.13
2023-02-28T07:10:57.239Z,102246.06
2023-02-28T07:13:24.960Z,102242.31
2023-02-28T07:15:59.290Z,102240.84
2023-02-28T07:18:27.122Z,102247.34
2023-02-28T07:20:54.585Z,102243.84
2023-02-28T07:23:22.295Z,102241.09
2023-02-28T07:25:51.736Z,102248.06
2023-02-28T07:28:19.215Z,102247.78
2023-02-28T07:30:46.614Z,102249.88
2023-02-28T07:33:14.306Z,102253.63
2023-02-28T07:35:42.123Z,102249.00
2023-02-28T07:38:09.744Z,102252.34
2023-02-28T07:40:37.532Z,102248.59
2023-02-28T07:43:04.956Z,102255.06
2023-02-28T07:45:35.428Z,102252.75
2023-02-28T07:48:06.393Z,102261.69
2023-02-28T07:50:33.818Z,102266.47
2023-02-28T07:53:01.516Z,102264.22
2023-02-28T07:55:29.014Z,102273.84
2023-02-28T07:57:58.215Z,102264.59
2023-02-28T08:00:25.931Z,102271.38
2023-02-28T08:02:53.316Z,102263.31
2023-02-28T08:05:22.262Z,102264.09
2023-02-28T08:07:50.652Z,102271.78
2023-02-28T08:10:18.159Z,102272.31
2023-02-28T08:12:47.814Z,102262.91
2023-02-28T08:15:15.148Z,102274.69
2023-02-28T08:17:42.668Z,102271.09
2023-02-28T08:20:11.421Z,102267.63
2023-02-28T08:22:38.910Z,102271.97
2023-02-28T08:25:08.227Z,102270.66
2023-02-28T08:27:36.470Z,102274.88
2023-02-28T08:30:04.763Z,102271.75
2023-02-28T08:32:34.258Z,102280.59
2023-02-28T08:35:02.854Z,102275.63
2023-02-28T08:37:30.214Z,102278.34
2023-02-28T08:39:57.816Z,102282.97
2023-02-28T08:42:25.515Z,102283.78
2023-02-28T08:44:52.975Z,102286.63
2023-02-28T08:47:20.349Z,102281.94
2023-02-28T08:49:47.715Z,102280.19
2023-02-28T08:52:17.594Z,102291.31
2023-02-28T08:54:45.085Z,102286.03
2023-02-28T08:57:12.296Z,102284.22
2023-02-28T08:59:39.675Z,102286.75
2023-02-28T09:02:07.091Z,102286.63
2023-02-28T09:04:35.195Z,102284.28
2023-02-28T09:07:02.531Z,102290.97
2023-02-28T09:09:29.965Z,102283.41
2023-02-28T09:11:58.306Z,102280.56
2023-02-28T09:14:25.810Z,102281.53
2023-02-28T09:16:53.207Z,102284.66
2023-02-28T09:19:20.568Z,102288.09
2023-02-28T09:21:48.010Z,102293.63
2023-02-28T09:24:16.416Z,102291.00
2023-02-28T09:26:56.505Z,102289.03
2023-02-28T09:29:32.469Z,102288.06
2023-02-28T09:32:00.498Z,102291.44
2023-02-28T09:34:28.934Z,102295.00
2023-02-28T09:36:56.315Z,102283.97
2023-02-28T09:39:24.607Z,102295.47
2023-02-28T09:41:53.436Z,102288.31
2023-02-28T09:44:28.239Z,102290.31
2023-02-28T09:47:01.972Z,102281.22
2023-02-28T09:49:38.856Z,102283.03
2023-02-28T09:52:12.160Z,102282.41
2023-02-28T09:54:40.152Z,102278.22
2023-02-28T09:57:19.203Z,102269.44
2023-02-28T10:00:01.633Z,102279.38
2023-02-28T10:02:32.853Z,102270.59
2023-02-28T10:05:08.232Z,102265.22
2023-02-28T10:07:47.322Z,102270.25
2023-02-28T10:10:42.046Z,102271.38
2023-02-28T10:13:43.460Z,102271.06
2023-02-28T10:16:35.802Z,102262.03
2023-02-28T10:19:17.273Z,102261.03
2023-02-28T10:21:55.674Z,102253.44
2023-02-28T10:24:49.085Z,102253.91
2023-02-28T10:27:19.690Z,102247.63
2023-02-28T10:29:55.419Z,102250.19
2023-02-28T10:32:32.462Z,102241.31
2023-02-28T10:35:20.831Z,102249.06
2023-02-28T10:37:51.092Z,102233.63
2023-02-28T10:40:18.681Z,102232.72
2023-02-28T10:43:19.947Z,102232.72
2023-02-28T10:46:09.162Z,102225.09
2023-02-28T10:48:46.034Z,102222.44
2023-02-28T10:51:15.656Z,102223.06
2023-02-28T10:54:03.103Z,102211.75
2023-02-28T10:56:32.106Z,102212.22
2023-02-28T10:59:09.094Z,102218.13
2023-02-28T11:01:50.214Z,102200.81
2023-02-28T11:04:23.766Z,102224.94
2023-02-28T11:07:20.758Z,102204.56
2023-02-28T11:09:52.423Z,102209.72
2023-02-28T11:12:46.894Z,102201.19
2023-02-28T11:15:26.449Z,102202.66
2023-02-28T11:18:28.908Z,102193.31
2023-02-28T11:21:00.344Z,102192.16
2023-02-28T11:23:31.910Z,102192.34
2023-02-28T11:26:03.160Z,102176.53
2023-02-28T11:28:36.010Z,102178.72
2023-02-28T11:31:17.630Z,102185.09
2023-02-28T11:33:56.658Z,102193.78
2023-02-28T11:36:27.120Z,102181.59
2023-02-28T11:38:57.128Z,102178.59
2023-02-28T11:41:41.512Z,102175.16
2023-02-28T11:44:32.710Z,102169.38
2023-02-28T11:47:16.121Z,102168.31
2023-02-28T11:49:50.208Z,102173.63
2023-02-28T11:52:37.267Z,102159.88
2023-02-28T11:55:35.671Z,102167.03
2023-02-28T11:58:25.069Z,102156.19
2023-02-28T12:01:22.719Z,102152.53
2023-02-28T12:03:52.951Z,102160.56
2023-02-28T12:06:45.022Z,102157.25
2023-02-28T12:09:34.353Z,102144.94
2023-02-28T12:12:26.540Z,102131.09
2023-02-28T12:15:18.372Z,102148.13
2023-02-28T12:17:56.237Z,102136.03
2023-02-28T12:21:11.262Z,102128.31
2023-02-28T12:24:05.258Z,102123.25
2023-02-28T12:26:47.852Z,102122.66
2023-02-28T12:29:35.360Z,102123.00
2023-02-28T12:32:19.960Z,102118.16
2023-02-28T12:34:51.159Z,102098.84
2023-02-28T12:37:28.758Z,102112.47
2023-02-28T12:40:27.031Z,102109.88
2023-02-28T12:43:00.030Z,102115.69
2023-02-28T12:45:39.774Z,102104.88
2023-02-28T12:48:11.689Z,102093.50
2023-02-28T12:50:39.297Z,102095.25
2023-02-28T12:53:37.237Z,102083.16
2023-02-28T12:56:16.901Z,102087.06
2023-02-28T12:58:54.940Z,102075.19
2023-02-28T13:01:37.498Z,102097.25
2023-02-28T13:04:29.755Z,102078.06
2023-02-28T13:07:18.859Z,102079.59
2023-02-28T13:10:01.131Z,102061.53
2023-02-28T13:12:28.908Z,102081.34
2023-02-28T13:15:25.762Z,102059.75
2023-02-28T13:17:58.122Z,102056.53
2023-02-28T13:20:36.964Z,102060.38
2023-02-28T13:23:06.496Z,102057.59
2023-02-28T13:25:43.024Z,102052.59
2023-02-28T13:28:13.305Z,102052.38
2023-02-28T13:30:53.196Z,102053.25
2023-02-28T13:33:36.363Z,102052.00
2023-02-28T13:36:11.302Z,102048.09
2023-02-28T13:38:43.501Z,102037.78
2023-02-28T13:41:32.794Z,102030.38
2023-02-28T13:44:32.501Z,102042.28
2023-02-28T13:47:01.516Z,102034.63
2023-02-28T13:49:30.200Z,102042.72
2023-02-28T13:52:17.876Z,102045.72
2023-02-28T13:55:17.518Z,102051.91
2023-02-28T13:58:29.920Z,102036.34
2023-02-28T14:01:24.413Z,102032.78
2023-02-28T14:04:04.554Z,102055.88
2023-02-28T14:06:34.397Z,102032.41
2023-02-28T14:09:08.911Z,102031.88
2023-02-28T14:11:38.551Z,102032.75
2023-02-28T14:14:08.259Z,102015.44
2023-02-28T14:16:48.009Z,102029.25
2023-02-28T14:19:32.651Z,102056.47
2023-02-28T14:22:05.739Z,102042.72
2023-02-28T14:24:42.069Z,102042.03
2023-02-28T14:27:28.075Z,102028.13
2023-02-28T14:30:05.818Z,102031.72
2023-02-28T14:32:39.303Z,102038.03
2023-02-28T14:35:28.007Z,102031.97
2023-02-28T14:37:56.116Z,102030.59
2023-02-28T14:40:28.599Z,102026.88
2023-02-28T14:43:01.247Z,102023.34
2023-02-28T14:45:31.658Z,102023.59
2023-02-28T14:48:00.361Z,102019.63
2023-02-28T14:50:35.032Z,102012.81
2023-02-28T14:53:03.532Z,102021.69
2023-02-28T14:55:32.986Z,102022.41
2023-02-28T14:58:19.069Z,102035.22
2023-02-28T15:00:51.770Z,102025.16
2023-02-28T15:03:40.285Z,102019.72
2023-02-28T15:06:15.036Z,102018.03
2023-02-28T15:08:42.353Z,102020.34
2023-02-28T15:11:14.331Z,102008.38
2023-02-28T15:13:47.599Z,102010.44
2023-02-28T15:16:18.208Z,102014.47
2023-02-28T15:18:49.311Z,102007.03
2023-02-28T15:21:22.517Z,102019.94
2023-02-28T15:23:54.762Z,102031.38
2023-02-28T15:26:24.982Z,102020.69
2023-02-28T15:28:58.260Z,102021.72
2023-02-28T15:31:58.738Z,102019.19
2023-02-28T15:34:43.027Z,102034.94
2023-02-28T15:37:31.832Z,102029.63
2023-02-28T15:40:11.781Z,102028.91
2023-02-28T15:42:39.191Z,102016.38
2023-02-28T15:45:07.038Z,102023.63
2023-02-28T15:47:34.520Z,102018.56
2023-02-28T15:50:04.587Z,102017.22
2023-02-28T15:52:42.151Z,102023.63
2023-02-28T15:55:13.613Z,102021.91
2023-02-28T15:57:41.619Z,102020.91
2023-02-28T16:00:14.402Z,102020.44
2023-02-28T16:02:42.692Z,102010.56
2023-02-28T16:05:09.991Z,102013.56
2023-02-28T16:07:43.078Z,102020.69
2023-02-28T16:10:12.632Z,102012.25
2023-02-28T16:12:40.853Z,102015.06
2023-02-28T16:15:30.079Z,102017.44
2023-02-28T16:17:58.013Z,102020.78
2023-02-28T16:20:31.155Z,102021.16
2023-02-28T16:23:02.330Z,102023.13
2023-02-28T16:25:40.771Z,102023.19
2023-02-28T16:28:19.570Z,102021.19
2023-02-28T16:30:46.996Z,102029.09
2023-02-28T16:33:14.327Z,102035.66
2023-02-28T16:35:47.211Z,102033.03
2023-02-28T16:38:14.509Z,102037.69
2023-02-28T16:40:41.862Z,102036.66
2023-02-28T16:43:17.143Z,102036.53
2023-02-28T16:45:44.969Z,102031.47
2023-02-28T16:48:14.858Z,102044.16
2023-02-28T16:50:42.217Z,102041.91
2023-02-28T16:53:09.583Z,102045.75
2023-02-28T16:55:36.955Z,102045.41
2023-02-28T16:58:04.957Z,102045.72
2023-02-28T17:00:33.622Z,102041.56
2023-02-28T17:03:01.244Z,102060.03
2023-02-28T17:05:33.677Z,102048.25
2023-02-28T17:08:02.692Z,102050.75
2023-02-28T17:10:30.503Z,102064.69
2023-02-28T17:13:06.190Z,102058.16
2023-02-28T17:15:41.802Z,102060.97
2023-02-28T17:18:13.053Z,102066.94
2023-02-28T17:20:40.405Z,102070.06
2023-02-28T17:23:08.014Z,102072.69
2023-02-28T17:25:35.480Z,102061.19
2023-02-28T17:28:02.887Z,102066.53
2023-02-28T17:30:34.517Z,102070.66
2023-02-28T17:33:01.944Z,102077.22
2023-02-28T17:35:29.614Z,102067.69
2023-02-28T17:37:57.091Z,102070.53
2023-02-28T17:40:24.978Z,102075.69
2023-02-28T17:42:53.495Z,102076.28
2023-02-28T17:45:21.029Z,102076.28
2023-02-28T17:47:54.214Z,102079.41
2023-02-28T17:50:22.757Z,102084.81
2023-02-28T17:52:51.456Z,102086.91
2023-02-28T17:55:20.095Z,102084.03
2023-02-28T17:57:47.843Z,102091.38
2023-02-28T18:00:17.063Z,102098.25
2023-02-28T18:02:45.070Z,102099.00
2023-02-28T18:05:12.838Z,102104.31
2023-02-28T18:07:40.826Z,102114.00
2023-02-28T18:10:15.993Z,102103.88
2023-02-28T18:12:44.077Z,102103.75
2023-02-28T18:15:11.805Z,102120.13
2023-02-28T18:17:39.478Z,102106.00
2023-02-28T18:20:07.121Z,102108.28
2023-02-28T18:22:36.974Z,102118.69
2023-02-28T18:25:05.770Z,102117.88
2023-02-28T18:27:34.055Z,102121.09
2023-02-28T18:30:01.887Z,102118.59
2023-02-28T18:32:29.966Z,102122.50
2023-02-28T18:34:57.710Z,102122.72
2023-02-28T18:37:25.468Z,102121.53
2023-02-28T18:39:52.754Z,102123.31
2023-02-28T18:42:20.024Z,102121.69
2023-02-28T18:44:47.520Z,102120.94
2023-02-28T18:47:14.986Z,102124.66
2023-02-28T18:49:42.220Z,102111.81
2023-02-28T18:52:09.569Z,102114.19
2023-02-28T18:54:36.939Z,102123.75
2023-02-28T18:57:06.784Z,102122.16
2023-02-28T18:59:34.076Z,102115.25
2023-02-28T19:02:01.389Z,102120.25
2023-02-28T19:04:28.918Z,102128.88
2023-02-28T19:06:56.278Z,102125.81
2023-02-28T19:09:24.067Z,102119.75
2023-02-28T19:11:51.789Z,102125.56
2023-02-28T19:14:21.033Z,102126.88
2023-02-28T19:16:50.276Z,102124.06
2023-02-28T19:19:17.638Z,102128.31
2023-02-28T19:21:45.063Z,102121.31
2023-02-28T19:24:12.599Z,102126.50
2023-02-28T19:26:40.434Z,102132.56
2023-02-28T19:29:07.856Z,102127.09
2023-02-28T19:31:35.393Z,102130.81
2023-02-28T19:34:02.803Z,102135.44
2023-02-28T19:36:30.186Z,102132.31
2023-02-28T19:38:57.877Z,102138.06
2023-02-28T19:41:25.528Z,102140.06
2023-02-28T19:43:53.451Z,102136.88
2023-02-28T19:46:20.764Z,102134.13
2023-02-28T19:48:48.851Z,102141.94
2023-02-28T19:53:45.028Z,102131.97
2023-02-28T19:56:12.673Z,102134.72
2023-02-28T19:58:40.169Z,102142.78
2023-02-28T20:01:15.537Z,102130.22
2023-02-28T20:03:43.352Z,102127.72
2023-02-28T20:06:13.896Z,102131.25
2023-02-28T20:08:41.605Z,102132.31
2023-02-28T20:11:11.559Z,102137.16
2023-02-28T20:13:38.901Z,102136.81
2023-02-28T20:16:09.639Z,102130.03
2023-02-28T20:18:38.133Z,102132.91
2023-02-28T20:21:08.642Z,102136.38
2023-02-28T20:23:38.228Z,102139.44
2023-02-28T20:26:06.163Z,102142.78
2023-02-28T20:28:33.620Z,102142.81
2023-02-28T20:31:01.357Z,102146.38
2023-02-28T20:33:28.936Z,102148.03
2023-02-28T20:36:01.226Z,102139.50
2023-02-28T20:38:28.820Z,102142.69
2023-02-28T20:40:58.293Z,102142.69
2023-02-28T20:43:26.376Z,102138.69
2023-02-28T20:45:55.493Z,102148.97
2023-02-28T20:48:22.856Z,102150.41
2023-02-28T20:50:51.241Z,102143.88
2023-02-28T20:53:19.376Z,102144.50
2023-02-28T20:56:04.729Z,102159.66
2023-02-28T20:58:34.246Z,102150.16
2023-02-28T21:01:15.845Z,102151.25
2023-02-28T21:03:48.477Z,102154.31
2023-02-28T21:06:17.961Z,102158.22
2023-02-28T21:08:45.389Z,102169.84
2023-02-28T21:11:15.070Z,102162.97
2023-02-28T21:13:43.470Z,102161.31
2023-02-28T21:16:13.721Z,102160.03
2023-02-28T21:18:41.172Z,102157.63
2023-02-28T21:21:14.673Z,102163.88
2023-02-28T21:23:42.473Z,102176.13
2023-02-28T21:26:12.220Z,102172.88
2023-02-28T21:28:44.257Z,102169.00
2023-02-28T21:31:14.541Z,102168.78
2023-02-28T21:33:43.367Z,102171.59
2023-02-28T21:36:16.021Z,102175.03
2023-02-28T21:38:44.713Z,102178.97
2023-02-28T21:41:18.413Z,102179.78
2023-02-28T21:43:46.403Z,102171.72
2023-02-28T21:46:17.389Z,102169.22
2023-02-28T21:48:45.189Z,102175.38
2023-02-28T21:51:15.126Z,102178.31
2023-02-28T21:53:43.203Z,102164.13
2023-02-28T21:56:16.465Z,102181.16
2023-02-28T21:58:44.141Z,102179.00
2023-02-28T22:01:19.651Z,102175.25
2023-02-28T22:03:48.656Z,102165.66
2023-02-28T22:06:17.716Z,102172.97
2023-02-28T22:08:47.188Z,102174.56
2023-02-28T22:11:15.313Z,102172.59
2023-02-28T22:13:43.204Z,102185.22
2023-02-28T22:16:16.974Z,102181.53
2023-02-28T22:18:44.945Z,102184.63
2023-02-28T22:21:13.496Z,102181.06
2023-02-28T22:23:41.929Z,102182.09
2023-02-28T22:26:11.947Z,102180.53
2023-02-28T22:28:39.678Z,102182.97
2023-02-28T22:31:33.601Z,102178.19
2023-02-28T22:34:03.483Z,102183.88
2023-02-28T22:36:31.202Z,102184.63
2023-02-28T22:38:58.930Z,102179.56
2023-02-28T22:41:26.702Z,102190.69
2023-02-28T22:43:56.402Z,102180.56
2023-02-28T22:46:24.903Z,102177.41
2023-02-28T22:48:52.858Z,102174.97
2023-02-28T22:51:25.619Z,102177.22
2023-02-28T22:53:55.035Z,102187.81
2023-02-28T22:56:23.883Z,102189.78
2023-02-28T22:58:52.826Z,102181.09
2023-02-28T23:01:22.211Z,102188.81
2023-02-28T23:03:49.821Z,102190.34
2023-02-28T23:06:32.269Z,102183.59
2023-02-28T23:09:02.935Z,102182.22
2023-02-28T23:11:42.714Z,102188.13
2023-02-28T23:14:12.821Z,102188.88
2023-02-28T23:16:49.843Z,102188.28
2023-02-28T23:19:22.433Z,102180.63
2023-02-28T23:21:50.132Z,102198.63
2023-02-28T23:24:19.343Z,102193.50
2023-02-28T23:26:49.513Z,102187.59
2023-02-28T23:29:23.569Z,102174.72
2023-02-28T23:31:51.180Z,102190.94
2023-02-28T23:34:26.487Z,102173.16
2023-02-28T23:36:54.622Z,102184.19
2023-02-28T23:39:24.128Z,102178.91
2023-02-28T23:41:51.636Z,102172.09
2023-02-28T23:44:19.845Z,102165.50
2023-02-28T23:46:49.528Z,102175.34
2023-02-28T23:49:20.412Z,102167.66
2023-02-28T23:51:49.368Z,102171.72
2023-02-28T23:54:18.030Z,102166.38
2023-02-28T23:56:45.578Z,102165.31
2023-02-28T23:59:13.435Z,102173.22
